For More Information Regarding This Station Coogee Station

PLEASE NOTE: "Rain" is actually the sum of Fremantle rainfall plus their outdoor nursery irrigation, as the sensor is located in their outdoor Bonsai nursery. This value can be misleading as they irrigate according to need.

Station Historical Data
 
Daily Summary for April 17, 2014 Units:  Metric    English   Both
« Previous Day
Next Day »
Daily Weekly Monthly Yearly Custom
  Current: High: Low: Average:
Temperature: 23.8 °C 23.8 °C 12.4 °C 14.8 °C
Dew Point: 11.8 °C 14.4 °C 10.8 °C 11.8 °C
Humidity: 47% 92% 47% 84%
Wind Speed: 6.1km/h 6.1km/h 0km/h 0.3km/h
Wind Gust: 6.1km/h 7.9km/h - -
WindNE - - East
Pressure: 1021.9 hPa 1022.9 hPa 1019.9 hPa -
Precipitation: 2.03 mm      
Historical Graphs
 
 
Tabular Data for April 17, 2014
Time Temperature Dew Point Pressure Wind Wind Speed Wind Gust Humidity Rainfall Rate (Hourly) solar Conditions
00:00 13.8 °C 11.3 °C 1019.9 hPa Calm     85% 0 mm VWS V15.00 W/m2
00:05 13.8 °C 11.3 °C 1020.9 hPa Calm     85% 0 mm VWS V15.00 W/m2
00:10 13.8 °C 11.5 °C 1020.9 hPa Calm     86% 0 mm VWS V15.00 W/m2
00:15 13.8 °C 11.5 °C 1020.9 hPa Calm     86% 0 mm VWS V15.00 W/m2
00:20 13.7 °C 11.4 °C 1020.9 hPa Calm     86% 0 mm VWS V15.00 W/m2
00:25 13.5 °C 11.2 °C 1020.9 hPa Calm     86% 0 mm VWS V15.00 W/m2
00:30 13.4 °C 11.1 °C 1020.9 hPa Calm     86% 0 mm VWS V15.00 W/m2
00:35 13.5 °C 11.2 °C 1020.9 hPa Calm     86% 0 mm VWS V15.00 W/m2
00:40 13.4 °C 11.3 °C 1020.9 hPa Calm     87% 0 mm VWS V15.00 W/m2
00:45 13.4 °C 11.3 °C 1020.9 hPa Calm     87% 0 mm VWS V15.00 W/m2
00:50 13.4 °C 11.3 °C 1020.9 hPa Calm     87% 0 mm VWS V15.00 W/m2
00:55 13.4 °C 11.3 °C 1020.9 hPa Calm     87% 0 mm VWS V15.00 W/m2
01:00 13.3 °C 11.2 °C 1020.9 hPa Calm     87% 0 mm VWS V15.00 W/m2
01:05 13.2 °C 11.3 °C 1019.9 hPa Calm     88% 0 mm VWS V15.00 W/m2
01:10 13.1 °C 11.2 °C 1019.9 hPa Calm     88% 0 mm VWS V15.00 W/m2
01:15 13.1 °C 11.2 °C 1019.9 hPa Calm     88% 0 mm VWS V15.00 W/m2
01:20 13 °C 11.1 °C 1019.9 hPa Calm     88% 0 mm VWS V15.00 W/m2
01:25 13 °C 11.1 °C 1019.9 hPa Calm     88% 0 mm VWS V15.00 W/m2
01:30 13.1 °C 11.2 °C 1019.9 hPa Calm     88% 0 mm VWS V15.00 W/m2
01:35 13.2 °C 11.4 °C 1019.9 hPa Calm     89% 0 mm VWS V15.00 W/m2
01:40 13.1 °C 11.2 °C 1019.9 hPa Calm     88% 0 mm VWS V15.00 W/m2
01:45 13 °C 11.1 °C 1019.9 hPa Calm     88% 0 mm VWS V15.00 W/m2
01:50 13 °C 11.2 °C 1020.9 hPa Calm     89% 0 mm VWS V15.00 W/m2
01:55 13 °C 11.2 °C 1020.9 hPa Calm     89% 0 mm VWS V15.00 W/m2
02:00 12.9 °C 11.3 °C 1020.9 hPa Calm     90% 0 mm VWS V15.00 W/m2
02:05 12.9 °C 11.3 °C 1020.9 hPa Calm     90% 0 mm VWS V15.00 W/m2
02:10 13.1 °C 11.3 °C 1020.9 hPa Calm     89% 0 mm VWS V15.00 W/m2
02:15 12.9 °C 11.3 °C 1020.9 hPa Calm     90% 0 mm VWS V15.00 W/m2
02:20 13 °C 11.2 °C 1019.9 hPa Calm     89% 0 mm VWS V15.00 W/m2
02:25 13.1 °C 11.3 °C 1019.9 hPa Calm     89% 0 mm VWS V15.00 W/m2
02:30 13 °C 11.2 °C 1019.9 hPa Calm     89% 0 mm VWS V15.00 W/m2
02:35 12.9 °C 11.3 °C 1019.9 hPa Calm     90% 0 mm VWS V15.00 W/m2
02:40 12.8 °C 11.2 °C 1019.9 hPa Calm     90% 0 mm VWS V15.00 W/m2
02:45 12.8 °C 11.2 °C 1019.9 hPa Calm     90% 0 mm VWS V15.00 W/m2
02:50 12.9 °C 11.3 °C 1019.9 hPa Calm     90% 0 mm VWS V15.00 W/m2
02:55 13.1 °C 11.5 °C 1019.9 hPa Calm     90% 0 mm VWS V15.00 W/m2
03:00 13.1 °C 11.5 °C 1019.9 hPa Calm     90% 0 mm VWS V15.00 W/m2
03:10 12.8 °C 11.2 °C 1020.9 hPa Calm     90% 0 mm VWS V15.00 W/m2
03:15 12.9 °C 11.3 °C 1020.9 hPa Calm     90% 0 mm VWS V15.00 W/m2
03:20 12.9 °C 11.3 °C 1020.9 hPa Calm     90% 0 mm VWS V15.00 W/m2
03:25 12.9 °C 11.3 °C 1020.9 hPa Calm     90% 0 mm VWS V15.00 W/m2
03:30 12.9 °C 11.3 °C 1020.9 hPa Calm     90% 0 mm VWS V15.00 W/m2
03:35 12.9 °C 11.3 °C 1020.9 hPa Calm     90% 0 mm VWS V15.00 W/m2
03:40 13.3 °C 11.7 °C 1020.9 hPa Calm     90% 0 mm VWS V15.00 W/m2
03:45 13.3 °C 11.7 °C 1020.9 hPa Calm     90% 0 mm VWS V15.00 W/m2
03:55 13.5 °C 11.9 °C 1021.9 hPa Calm     90% 0 mm VWS V15.00 W/m2
04:00 13.5 °C 11.9 °C 1021.9 hPa Calm     90% 0 mm VWS V15.00 W/m2
04:05 13.5 °C 11.9 °C 1019.9 hPa Calm     90% 0 mm VWS V15.00 W/m2
04:10 13.6 °C 12 °C 1019.9 hPa Calm     90% 0 mm VWS V15.00 W/m2
04:15 13.6 °C 12 °C 1019.9 hPa Calm     90% 0 mm VWS V15.00 W/m2
04:20 13.5 °C 11.9 °C 1019.9 hPa Calm     90% 0 mm VWS V15.00 W/m2
04:25 13.5 °C 11.9 °C 1019.9 hPa Calm     90% 0 mm VWS V15.00 W/m2
04:30 13.5 °C 11.9 °C 1019.9 hPa Calm     90% 0 mm VWS V15.00 W/m2
04:40 13.5 °C 11.9 °C 1019.9 hPa Calm     90% 0 mm VWS V15.00 W/m2
04:45 13.1 °C 11.5 °C 1019.9 hPa Calm     90% 0 mm VWS V15.00 W/m2
04:50 13 °C 11.4 °C 1020.9 hPa Calm     90% 0 mm VWS V15.00 W/m2
04:55 12.9 °C 11.3 °C 1020.9 hPa Calm     90% 0 mm VWS V15.00 W/m2
05:00 12.8 °C 11.2 °C 1020.9 hPa Calm     90% 0 mm VWS V15.00 W/m2
05:05 12.8 °C 11.4 °C 1020.9 hPa Calm     91% 2.03 mm VWS V15.00 W/m2
05:10 12.8 °C 11.4 °C 1020.9 hPa Calm     91% 2.03 mm VWS V15.00 W/m2
05:15 12.5 °C 11.1 °C 1020.9 hPa Calm     91% 2.03 mm VWS V15.00 W/m2
05:20 12.4 °C 10.8 °C 1020.9 hPa Calm     90% 2.03 mm VWS V15.00 W/m2
05:25 12.5 °C 11.1 °C 1020.9 hPa Calm     91% 2.03 mm VWS V15.00 W/m2
05:30 12.6 °C 11.3 °C 1020.9 hPa Calm     92% 2.03 mm VWS V15.00 W/m2
05:35 12.7 °C 11.4 °C 1020.9 hPa Calm     92% 2.03 mm VWS V15.00 W/m2
05:45 13.2 °C 11.9 °C 1020.9 hPa Calm     92% 2.03 mm VWS V15.00 W/m2
05:50 13.5 °C 12.2 °C 1020.9 hPa Calm     92% 2.03 mm VWS V15.00 W/m2
05:55 13.7 °C 12.4 °C 1020.9 hPa Calm     92% 2.03 mm VWS V15.00 W/m2
06:00 13.8 °C 12.5 °C 1020.9 hPa Calm     92% 2.03 mm VWS V15.00 W/m2
06:05 14 °C 12.6 °C 1020.9 hPa Calm     91% 2.03 mm VWS V15.00 W/m2
06:10 14.1 °C 12.7 °C 1020.9 hPa Calm     91% 0 mm VWS V15.00 W/m2
06:15 14.2 °C 12.8 °C 1020.9 hPa Calm     91% 0 mm VWS V15.00 W/m2
06:25 14.2 °C 12.6 °C 1021.9 hPa Calm     90% 0 mm VWS V15.00 W/m2
06:30 14.2 °C 12.4 °C 1021.9 hPa Calm     89% 0 mm VWS V15.00 W/m2
06:40 14 °C 12.1 °C 1021.9 hPa Calm     88% 0 mm VWS V15.00 W/m2
06:45 14 °C 12.1 °C 1021.9 hPa Calm     88% 0 mm VWS V15.00 W/m2
06:50 13.9 °C 11.9 °C 1021.9 hPa Calm     88% 0 mm VWS V15.00 W/m2
06:55 13.7 °C 11.6 °C 1021.9 hPa Calm     87% 0 mm VWS V15.00 W/m2
07:05 13.7 °C 11.8 °C 1021.9 hPa Calm     88% 0 mm VWS V15.00 W/m2
07:10 13.8 °C 11.8 °C 1021.9 hPa Calm     88% 0 mm VWS V15.00 W/m2
07:15 14.1 °C 12.3 °C 1021.9 hPa Calm     89% 0 mm VWS V15.00 W/m2
07:20 14.7 °C 12.9 °C 1021.9 hPa Calm     89% 0 mm VWS V15.00 W/m2
07:30 16.4 °C 14.4 °C 1021.9 hPa Calm     88% 0 mm VWS V15.00 W/m2
07:35 16.7 °C 13.8 °C 1022.9 hPa Calm     83% 0 mm VWS V15.00 W/m2
07:40 16.8 °C 13.5 °C 1022.9 hPa Calm     81% 0 mm VWS V15.00 W/m2
07:45 16.9 °C 13.4 °C 1022.9 hPa Calm   1.4 km/h 80% 0 mm VWS V15.00 W/m2
07:50 16.9 °C 12.8 °C 1022.9 hPa Calm     77% 0 mm VWS V15.00 W/m2
07:55 17.3 °C 13.2 °C 1022.9 hPa Calm     77% 0 mm VWS V15.00 W/m2
08:00 17.5 °C 12.8 °C 1022.9 hPa Calm     74% 0 mm VWS V15.00 W/m2
08:05 17.7 °C 12.8 °C 1022.9 hPa Calm     73% 0 mm VWS V15.00 W/m2
08:10 17.8 °C 12.7 °C 1022.9 hPa Calm     72% 0 mm VWS V15.00 W/m2
08:15 18.2 °C 12.7 °C 1022.9 hPa Calm     70% 0 mm VWS V15.00 W/m2
08:20 19.2 °C 13.6 °C 1022.9 hPa Calm     70% 0 mm VWS V15.00 W/m2
08:25 20.3 °C 14.2 °C 1022.9 hPa Calm     68% 0 mm VWS V15.00 W/m2
08:30 21 °C 13.9 °C 1022.9 hPa NNE 1.8 km/h 1.8 km/h 64% 0 mm VWS V15.00 W/m2
08:35 21.2 °C 12.9 °C 1022.9 hPa Calm     59% 0 mm VWS V15.00 W/m2
08:40 20.9 °C 12.6 °C 1022.9 hPa Calm     59% 0 mm VWS V15.00 W/m2
08:45 20.5 °C 11.7 °C 1022.9 hPa North 3.5 km/h 4.7 km/h 57% 0 mm VWS V15.00 W/m2
08:50 20.9 °C 11.8 °C 1022.9 hPa SE 2.6 km/h 3.5 km/h 56% 0 mm VWS V15.00 W/m2
08:55 21.4 °C 12 °C 1022.9 hPa NNE 4 km/h 4.3 km/h 55% 0 mm VWS V15.00 W/m2
09:00 21.8 °C 12.7 °C 1022.9 hPa SE 3.5 km/h 4.3 km/h 56% 0 mm VWS V15.00 W/m2
09:05 22.5 °C 12.4 °C 1022.9 hPa Calm   2.6 km/h 53% 0 mm VWS V15.00 W/m2
09:10 23.1 °C 12.7 °C 1022.9 hPa East 4 km/h 4.3 km/h 52% 0 mm VWS V15.00 W/m2
09:15 23.5 °C 12.8 °C 1022.9 hPa SE 4.7 km/h 4.7 km/h 51% 0 mm VWS V15.00 W/m2
09:20 23.4 °C 11.8 °C 1021.9 hPa SE 3.2 km/h 7.9 km/h 48% 0 mm VWS V15.00 W/m2
09:25 23.8 °C 11.8 °C 1021.9 hPa NE 6.1 km/h 6.1 km/h 47% 0 mm VWS V15.00 W/m2
Compliments of Weather Underground